createdAt,value
2022-10-01T00:02:08.382Z,81.42
2022-10-01T00:04:39.573Z,81.90
2022-10-01T00:07:10.851Z,82.18
2022-10-01T00:09:39.532Z,82.56
2022-10-01T00:12:09.504Z,82.40
2022-10-01T00:14:39.414Z,82.87
2022-10-01T00:17:07.766Z,82.80
2022-10-01T00:19:37.375Z,82.77
2022-10-01T00:22:05.792Z,83.11
2022-10-01T00:24:34.119Z,83.35
2022-10-01T00:27:02.433Z,84.08
2022-10-01T00:29:31.839Z,84.42
2022-10-01T00:32:00.202Z,84.61
2022-10-01T00:34:28.774Z,84.85
2022-10-01T00:36:58.373Z,84.93
2022-10-01T00:39:26.767Z,85.14
2022-10-01T00:41:55.070Z,85.47
2022-10-01T00:44:33.228Z,85.45
2022-10-01T00:47:07.790Z,86.04
2022-10-01T00:49:39.103Z,86.12
2022-10-01T00:52:14.682Z,86.31
2022-10-01T00:54:47.286Z,86.54
2022-10-01T00:57:19.937Z,86.38
2022-10-01T00:59:49.657Z,86.70
2022-10-01T01:02:18.174Z,86.85
2022-10-01T01:04:46.451Z,86.93
2022-10-01T01:07:16.978Z,86.98
2022-10-01T01:09:48.802Z,87.30
2022-10-01T01:12:32.703Z,87.23
2022-10-01T01:15:16.025Z,87.35
2022-10-01T01:17:54.575Z,87.29
2022-10-01T01:20:45.225Z,87.25
2022-10-01T01:23:48.577Z,87.12
2022-10-01T01:26:31.094Z,87.54
2022-10-01T01:29:06.701Z,87.14
2022-10-01T01:31:40.282Z,87.09
2022-10-01T01:34:12.986Z,87.09
2022-10-01T01:36:46.937Z,86.85
2022-10-01T01:39:18.203Z,87.12
2022-10-01T01:41:51.591Z,87.29
2022-10-01T01:44:26.987Z,87.19
2022-10-01T01:46:57.414Z,87.01
2022-10-01T01:49:26.884Z,87.12
2022-10-01T01:52:02.484Z,87.07
2022-10-01T01:54:30.996Z,87.08
2022-10-01T01:57:01.486Z,86.92
2022-10-01T01:59:33.893Z,87.04
2022-10-01T02:02:03.324Z,87.00
2022-10-01T02:04:36.342Z,87.20
2022-10-01T02:07:42.934Z,87.16
2022-10-01T02:10:27.995Z,86.72
2022-10-01T02:13:11.783Z,86.47
2022-10-01T02:15:59.657Z,86.22
2022-10-01T02:18:36.065Z,86.66
2022-10-01T02:21:12.332Z,86.00
2022-10-01T02:23:46.155Z,86.01
2022-10-01T02:26:20.023Z,86.13
2022-10-01T02:28:50.444Z,86.31
2022-10-01T02:31:21.570Z,85.73
2022-10-01T02:33:52.323Z,86.50
2022-10-01T02:36:22.127Z,86.47
2022-10-01T02:38:51.741Z,86.40
2022-10-01T02:41:28.095Z,86.50
2022-10-01T02:44:00.643Z,86.34
2022-10-01T02:46:38.282Z,85.86
2022-10-01T02:49:06.692Z,86.21
2022-10-01T02:51:46.033Z,86.32
2022-10-01T02:54:20.276Z,85.83
2022-10-01T02:57:06.562Z,85.54
2022-10-01T02:59:34.828Z,85.79
2022-10-01T03:02:04.908Z,85.53
2022-10-01T03:04:33.201Z,85.87
2022-10-01T03:07:04.003Z,85.79
2022-10-01T03:09:32.517Z,84.79
2022-10-01T03:12:01.112Z,84.74
2022-10-01T03:14:29.882Z,84.51
2022-10-01T03:16:58.183Z,84.23
2022-10-01T03:19:27.880Z,83.53
2022-10-01T03:21:56.469Z,83.93
2022-10-01T03:24:24.795Z,84.00
2022-10-01T03:26:53.044Z,83.54
2022-10-01T03:29:21.343Z,83.76
2022-10-01T03:31:49.742Z,82.97
2022-10-01T03:34:18.196Z,82.74
2022-10-01T03:36:48.372Z,82.96
2022-10-01T03:39:17.047Z,82.75
2022-10-01T03:41:45.391Z,82.23
2022-10-01T03:44:13.807Z,82.57
2022-10-01T03:46:42.092Z,82.35
2022-10-01T03:49:10.629Z,82.11
2022-10-01T03:51:39.160Z,82.60
2022-10-01T03:54:11.200Z,83.10
2022-10-01T03:56:40.804Z,83.99
2022-10-01T03:59:09.255Z,83.28
2022-10-01T04:01:38.011Z,83.02
2022-10-01T04:04:06.855Z,83.25
2022-10-01T04:06:35.390Z,83.15
2022-10-01T04:09:03.821Z,83.14
2022-10-01T04:11:33.870Z,83.03
2022-10-01T04:14:02.316Z,83.32
2022-10-01T04:16:30.826Z,82.85
2022-10-01T04:18:59.219Z,82.31
2022-10-01T04:21:27.786Z,82.38
2022-10-01T04:23:56.235Z,81.80
2022-10-01T04:26:25.142Z,81.60
2022-10-01T04:28:54.870Z,81.52
2022-10-01T04:31:26.106Z,81.48
2022-10-01T04:33:55.869Z,81.57
2022-10-01T04:36:25.119Z,81.33
2022-10-01T04:38:57.901Z,80.97
2022-10-01T04:41:26.455Z,81.41
2022-10-01T04:43:56.183Z,81.36
2022-10-01T04:46:24.476Z,81.58
2022-10-01T04:48:52.794Z,80.91
2022-10-01T04:51:21.068Z,80.74
2022-10-01T04:53:49.352Z,80.44
2022-10-01T04:56:17.601Z,80.13
2022-10-01T04:58:46.038Z,80.14
2022-10-01T05:01:15.761Z,79.58
2022-10-01T05:03:44.147Z,79.66
2022-10-01T05:06:12.458Z,79.11
2022-10-01T05:08:40.728Z,79.06
2022-10-01T05:11:09.166Z,79.54
2022-10-01T05:13:37.877Z,80.22
2022-10-01T05:16:06.863Z,80.28
2022-10-01T05:18:36.958Z,79.19
2022-10-01T05:21:09.977Z,78.03
2022-10-01T05:23:38.299Z,77.52
2022-10-01T05:26:07.416Z,76.96
2022-10-01T05:28:37.134Z,77.82
2022-10-01T05:31:06.271Z,77.68
2022-10-01T05:33:35.999Z,77.38
2022-10-01T05:36:05.117Z,77.86
2022-10-01T05:38:36.261Z,77.54
2022-10-01T05:41:04.993Z,77.68
2022-10-01T05:43:37.513Z,77.39
2022-10-01T05:46:06.491Z,77.00
2022-10-01T05:48:37.051Z,77.09
2022-10-01T05:51:08.134Z,76.60
2022-10-01T05:53:38.177Z,76.54
2022-10-01T05:56:07.758Z,76.46
2022-10-01T05:58:36.707Z,76.65
2022-10-01T06:01:05.785Z,76.41
2022-10-01T06:03:36.099Z,76.18
2022-10-01T06:06:05.448Z,76.21
2022-10-01T06:08:35.874Z,76.82
2022-10-01T06:11:04.809Z,76.34
2022-10-01T06:13:33.140Z,76.80
2022-10-01T06:16:01.771Z,77.49
2022-10-01T06:18:31.336Z,78.37
2022-10-01T06:21:01.789Z,78.75
2022-10-01T06:23:30.281Z,78.70
2022-10-01T06:26:01.086Z,78.71
2022-10-01T06:28:29.914Z,78.64
2022-10-01T06:30:58.400Z,78.75
2022-10-01T06:33:26.884Z,79.40
2022-10-01T06:35:56.179Z,79.38
2022-10-01T06:38:26.337Z,79.50
2022-10-01T06:40:56.935Z,79.68
2022-10-01T06:43:27.638Z,79.81
2022-10-01T06:45:57.326Z,80.36
2022-10-01T06:48:26.710Z,80.42
2022-10-01T06:50:57.477Z,80.87
2022-10-01T06:53:29.353Z,80.76
2022-10-01T06:55:57.898Z,81.04
2022-10-01T06:58:27.629Z,80.86
2022-10-01T07:01:01.458Z,81.16
2022-10-01T07:03:31.267Z,80.90
2022-10-01T07:06:04.507Z,81.42
2022-10-01T07:08:34.293Z,81.77
2022-10-01T07:11:03.693Z,80.99
2022-10-01T07:13:32.386Z,81.70
2022-10-01T07:16:00.855Z,82.09
2022-10-01T07:18:29.187Z,83.21
2022-10-01T07:20:58.416Z,83.84
2022-10-01T07:23:26.648Z,84.16
2022-10-01T07:25:56.229Z,84.61
2022-10-01T07:28:26.202Z,84.81
2022-10-01T07:31:03.219Z,85.11
2022-10-01T07:33:31.633Z,85.34
2022-10-01T07:36:03.156Z,84.79
2022-10-01T07:38:33.533Z,84.93
2022-10-01T07:41:04.626Z,85.35
2022-10-01T07:43:34.662Z,85.71
2022-10-01T07:46:03.491Z,86.23
2022-10-01T07:48:32.370Z,86.18
2022-10-01T07:51:00.768Z,85.80
2022-10-01T07:53:29.216Z,85.71
2022-10-01T07:55:57.911Z,85.90
2022-10-01T07:58:27.612Z,86.32
2022-10-01T08:00:58.402Z,85.58
2022-10-01T08:03:27.033Z,85.25
2022-10-01T08:05:55.445Z,85.52
2022-10-01T08:08:24.104Z,85.88
2022-10-01T08:10:52.587Z,86.55
2022-10-01T08:13:24.688Z,86.56
2022-10-01T08:15:54.983Z,87.02
2022-10-01T08:18:24.238Z,87.03
2022-10-01T08:20:52.685Z,87.12
2022-10-01T08:23:21.632Z,87.39
2022-10-01T08:25:49.916Z,87.23
2022-10-01T08:28:18.667Z,86.98
2022-10-01T08:30:46.982Z,86.74
2022-10-01T08:33:16.748Z,87.10
2022-10-01T08:35:45.386Z,87.43
2022-10-01T08:38:14.643Z,87.71
2022-10-01T08:40:47.584Z,86.25
2022-10-01T08:43:36.387Z,86.54
2022-10-01T08:46:08.517Z,87.29
2022-10-01T08:48:56.911Z,88.22
2022-10-01T08:51:32.763Z,89.29
2022-10-01T08:54:10.815Z,89.79
2022-10-01T08:56:45.162Z,89.79
2022-10-01T08:59:29.978Z,90.29
2022-10-01T09:01:59.112Z,90.42
2022-10-01T09:04:30.529Z,90.09
2022-10-01T09:07:08.388Z,89.68
2022-10-01T09:09:46.482Z,89.89
2022-10-01T09:12:29.913Z,90.24
2022-10-01T09:15:17.778Z,89.84
2022-10-01T09:18:02.894Z,90.52
2022-10-01T09:20:37.293Z,91.15
2022-10-01T09:23:20.090Z,90.87
2022-10-01T09:25:51.424Z,91.41
2022-10-01T09:28:24.013Z,91.45
2022-10-01T09:30:57.974Z,92.38
2022-10-01T09:33:32.937Z,93.04
2022-10-01T09:36:14.217Z,92.55
2022-10-01T09:38:45.284Z,92.84
2022-10-01T09:41:14.761Z,93.44
2022-10-01T09:43:46.015Z,93.86
2022-10-01T09:46:18.582Z,93.61
2022-10-01T09:48:57.070Z,94.10
2022-10-01T09:51:36.992Z,93.92
2022-10-01T09:54:16.349Z,94.63
2022-10-01T09:56:54.178Z,94.60
2022-10-01T09:59:29.867Z,94.83
2022-10-01T10:02:02.646Z,94.97
2022-10-01T10:04:31.613Z,95.05
2022-10-01T10:07:06.105Z,95.10
2022-10-01T10:09:36.691Z,95.98
2022-10-01T10:12:08.320Z,96.25
2022-10-01T10:14:40.119Z,96.41
2022-10-01T10:17:15.834Z,97.19
2022-10-01T10:19:51.648Z,96.92
2022-10-01T10:22:25.674Z,97.35
2022-10-01T10:24:57.913Z,97.07
2022-10-01T10:27:28.994Z,97.31
2022-10-01T10:30:08.583Z,95.55
2022-10-01T10:32:36.950Z,96.68
2022-10-01T10:35:10.774Z,97.22
2022-10-01T10:37:48.322Z,95.62
2022-10-01T10:40:20.386Z,95.86
2022-10-01T10:42:50.667Z,95.83
2022-10-01T10:45:22.210Z,95.06
2022-10-01T10:47:53.740Z,95.03
2022-10-01T10:50:34.962Z,96.11
2022-10-01T10:53:22.217Z,95.84
2022-10-01T10:56:01.200Z,95.10
2022-10-01T10:58:33.161Z,94.27
2022-10-01T11:01:06.896Z,93.98
2022-10-01T11:03:42.445Z,93.78
2022-10-01T11:06:14.808Z,94.11
2022-10-01T11:08:46.663Z,93.23
2022-10-01T11:11:32.420Z,92.21
2022-10-01T11:14:18.065Z,93.19
2022-10-01T11:17:25.850Z,93.82
2022-10-01T11:20:19.855Z,92.25
2022-10-01T11:23:03.929Z,90.57
2022-10-01T11:25:46.222Z,91.44
2022-10-01T11:28:33.987Z,90.15
2022-10-01T11:31:12.875Z,91.25
2022-10-01T11:33:58.427Z,90.95
2022-10-01T11:36:32.271Z,91.15
2022-10-01T11:39:03.828Z,91.17
2022-10-01T11:41:39.300Z,90.63
2022-10-01T11:44:15.448Z,89.49
2022-10-01T11:46:58.935Z,88.69
2022-10-01T11:49:46.628Z,88.20
2022-10-01T11:52:37.125Z,88.59
2022-10-01T11:55:38.570Z,88.06
2022-10-01T11:58:34.388Z,88.08
2022-10-01T12:01:11.752Z,88.61
2022-10-01T12:03:54.909Z,88.50
2022-10-01T12:06:33.796Z,88.96
2022-10-01T12:09:10.598Z,89.07
2022-10-01T12:11:44.746Z,88.61
2022-10-01T12:14:21.055Z,88.37
2022-10-01T12:16:55.012Z,89.00
2022-10-01T12:19:28.368Z,89.11
2022-10-01T12:22:03.041Z,88.00
2022-10-01T12:24:36.774Z,87.79
2022-10-01T12:27:28.195Z,87.92
2022-10-01T12:30:05.243Z,87.38
2022-10-01T12:32:47.857Z,87.07
2022-10-01T12:35:35.697Z,87.80
2022-10-01T12:38:20.694Z,87.11
2022-10-01T12:40:55.399Z,86.37
2022-10-01T12:43:45.990Z,86.33
2022-10-01T12:46:27.885Z,86.06
2022-10-01T12:49:07.893Z,86.17
2022-10-01T12:51:42.739Z,86.40
2022-10-01T12:54:26.284Z,86.07
2022-10-01T12:57:04.337Z,85.63
2022-10-01T12:59:48.588Z,86.03
2022-10-01T13:02:41.790Z,85.11
2022-10-01T13:05:20.983Z,84.54
2022-10-01T13:08:18.662Z,84.13
2022-10-01T13:10:57.323Z,83.90
2022-10-01T13:13:33.524Z,83.62
2022-10-01T13:16:10.372Z,84.03
2022-10-01T13:18:56.633Z,83.67
2022-10-01T13:21:37.991Z,82.75
2022-10-01T13:24:14.912Z,82.77
2022-10-01T13:26:48.711Z,82.79
2022-10-01T13:29:32.173Z,82.17
2022-10-01T13:32:03.071Z,81.23
2022-10-01T13:34:42.249Z,81.42
2022-10-01T13:37:14.087Z,80.93
2022-10-01T13:39:43.439Z,81.03
2022-10-01T13:42:22.352Z,81.42
2022-10-01T13:44:57.450Z,81.52
2022-10-01T13:47:27.296Z,80.60
2022-10-01T13:50:00.579Z,80.24
2022-10-01T13:52:29.116Z,79.74
2022-10-01T13:54:59.017Z,79.83
2022-10-01T13:57:32.892Z,79.59
2022-10-01T14:00:20.335Z,79.73
2022-10-01T14:03:04.290Z,79.61
2022-10-01T14:05:43.703Z,79.21
2022-10-01T14:08:19.100Z,78.69
2022-10-01T14:11:12.171Z,78.70
2022-10-01T14:14:05.203Z,78.46
2022-10-01T14:16:40.183Z,77.43
2022-10-01T14:19:09.600Z,76.12
2022-10-01T14:21:53.892Z,76.52
2022-10-01T14:24:32.870Z,75.26
2022-10-01T14:27:10.976Z,74.97
2022-10-01T14:29:53.927Z,75.08
2022-10-01T14:32:38.173Z,73.97
2022-10-01T14:35:26.642Z,73.83
2022-10-01T14:38:02.004Z,74.48
2022-10-01T14:40:39.112Z,73.84
2022-10-01T14:43:19.032Z,73.85
2022-10-01T14:45:56.711Z,74.06
2022-10-01T14:48:29.219Z,73.71
2022-10-01T14:51:00.999Z,73.50
2022-10-01T14:53:34.379Z,73.25
2022-10-01T14:56:07.705Z,72.22
2022-10-01T14:58:40.741Z,72.10
2022-10-01T15:01:18.216Z,72.37
2022-10-01T15:03:47.924Z,72.24
2022-10-01T15:06:19.102Z,73.67
2022-10-01T15:08:50.831Z,72.22
2022-10-01T15:11:23.837Z,72.69
2022-10-01T15:13:54.614Z,72.39
2022-10-01T15:16:25.563Z,72.08
2022-10-01T15:18:57.886Z,72.24
2022-10-01T15:21:31.825Z,72.24
2022-10-01T15:24:04.478Z,71.89
2022-10-01T15:26:33.723Z,71.57
2022-10-01T15:29:05.122Z,71.81
2022-10-01T15:31:35.157Z,70.77
2022-10-01T15:34:06.310Z,70.11
2022-10-01T15:36:37.093Z,69.71
2022-10-01T15:39:25.811Z,70.55
2022-10-01T15:41:55.611Z,70.45
2022-10-01T15:44:46.477Z,70.52
2022-10-01T15:47:33.749Z,71.14
2022-10-01T15:50:05.383Z,71.26
2022-10-01T15:52:53.189Z,71.76
2022-10-01T15:55:32.080Z,71.47
2022-10-01T15:58:09.032Z,71.57
2022-10-01T16:01:00.599Z,72.22
2022-10-01T16:03:34.252Z,71.54
2022-10-01T16:06:05.171Z,71.64
2022-10-01T16:08:40.387Z,71.28
2022-10-01T16:11:23.872Z,71.84
2022-10-01T16:13:54.762Z,72.00
2022-10-01T16:16:31.119Z,71.57
2022-10-01T16:19:20.003Z,71.80
2022-10-01T16:22:20.968Z,72.25
2022-10-01T16:24:52.247Z,71.87
2022-10-01T16:27:25.213Z,71.87
2022-10-01T16:30:04.981Z,71.37
2022-10-01T16:32:34.852Z,72.22
2022-10-01T16:35:19.917Z,72.19
2022-10-01T16:37:50.070Z,72.80
2022-10-01T16:40:19.404Z,72.75
2022-10-01T16:42:50.469Z,72.68
2022-10-01T16:45:22.660Z,72.11
2022-10-01T16:47:51.746Z,72.45
2022-10-01T16:50:22.379Z,72.83
2022-10-01T16:52:53.897Z,72.72
2022-10-01T16:55:25.460Z,72.50
2022-10-01T16:57:56.012Z,73.16
2022-10-01T17:00:26.633Z,73.02
2022-10-01T17:02:56.076Z,72.87
2022-10-01T17:05:28.200Z,72.63
2022-10-01T17:08:00.979Z,73.12
2022-10-01T17:10:31.879Z,73.10
2022-10-01T17:13:02.071Z,73.30
2022-10-01T17:15:30.469Z,73.36
2022-10-01T17:18:00.238Z,73.98
2022-10-01T17:20:30.347Z,73.82
2022-10-01T17:23:00.493Z,73.71
2022-10-01T17:25:32.385Z,73.91
2022-10-01T17:28:06.607Z,73.82
2022-10-01T17:30:35.506Z,73.65
2022-10-01T17:33:03.754Z,73.80
2022-10-01T17:35:32.191Z,73.48
2022-10-01T17:38:00.591Z,73.41
2022-10-01T17:40:29.330Z,73.90
2022-10-01T17:42:57.560Z,73.92
2022-10-01T17:45:27.266Z,74.03
2022-10-01T17:47:56.537Z,74.34
2022-10-01T17:50:24.789Z,74.66
2022-10-01T17:52:53.322Z,73.85
2022-10-01T17:55:23.641Z,74.52
2022-10-01T17:57:52.664Z,74.78
2022-10-01T18:00:21.235Z,75.37
2022-10-01T18:02:51.149Z,76.14
2022-10-01T18:05:19.741Z,76.28
2022-10-01T18:07:48.176Z,76.18
2022-10-01T18:10:16.541Z,75.89
2022-10-01T18:12:44.967Z,76.69
2022-10-01T18:15:13.796Z,77.26
2022-10-01T18:17:43.748Z,77.16
2022-10-01T18:20:21.918Z,77.16
2022-10-01T18:22:51.243Z,77.14
2022-10-01T18:25:19.993Z,76.98
2022-10-01T18:27:51.003Z,76.86
2022-10-01T18:30:20.146Z,76.90
2022-10-01T18:32:56.899Z,76.75
2022-10-01T18:35:32.322Z,76.65
2022-10-01T18:38:07.879Z,77.06
2022-10-01T18:40:43.208Z,78.23
2022-10-01T18:43:17.281Z,79.16
2022-10-01T18:46:05.702Z,80.24
2022-10-01T18:48:53.209Z,81.34
2022-10-01T18:51:39.875Z,83.16
2022-10-01T18:54:34.494Z,84.96
2022-10-01T18:57:16.388Z,86.18
2022-10-01T19:00:06.449Z,87.17
2022-10-01T19:02:55.151Z,88.24
2022-10-01T19:06:25.900Z,88.17
2022-10-01T19:09:09.758Z,88.75
2022-10-01T19:11:49.855Z,89.14
2022-10-01T19:14:43.017Z,89.95
2022-10-01T19:17:27.606Z,89.53
2022-10-01T19:20:14.609Z,89.59
2022-10-01T19:23:02.453Z,89.27
2022-10-01T19:25:37.459Z,89.96
2022-10-01T19:28:22.504Z,90.36
2022-10-01T19:31:02.446Z,90.70
2022-10-01T19:33:33.895Z,90.86
2022-10-01T19:36:03.042Z,89.33
2022-10-01T19:38:38.339Z,89.60
2022-10-01T19:41:15.882Z,89.16
2022-10-01T19:43:52.108Z,88.67
2022-10-01T19:46:27.447Z,88.53
2022-10-01T19:49:03.523Z,88.55
2022-10-01T19:51:36.108Z,88.82
2022-10-01T19:54:17.666Z,88.38
2022-10-01T19:56:50.069Z,88.52
2022-10-01T19:59:21.056Z,88.47
2022-10-01T20:01:54.887Z,87.96
2022-10-01T20:04:38.234Z,87.93
2022-10-01T20:07:12.356Z,87.76
2022-10-01T20:09:46.954Z,87.61
2022-10-01T20:12:26.841Z,87.20
2022-10-01T20:15:11.319Z,87.26
2022-10-01T20:17:57.180Z,87.37
2022-10-01T20:20:33.680Z,86.76
2022-10-01T20:23:20.344Z,86.85
2022-10-01T20:25:57.822Z,86.63
2022-10-01T20:28:36.129Z,86.16
2022-10-01T20:31:14.095Z,86.38
2022-10-01T20:33:51.634Z,86.26
2022-10-01T20:36:31.709Z,87.01
2022-10-01T20:39:06.408Z,87.08
2022-10-01T20:41:45.138Z,87.23
2022-10-01T20:44:18.722Z,87.19
2022-10-01T20:46:49.697Z,86.99
2022-10-01T20:49:27.984Z,87.51
2022-10-01T20:52:09.148Z,87.63
2022-10-01T20:54:46.554Z,87.77
2022-10-01T20:57:26.827Z,87.68
2022-10-01T20:59:57.275Z,87.81
2022-10-01T21:02:33.798Z,87.71
2022-10-01T21:05:06.541Z,87.27
2022-10-01T21:07:40.402Z,87.46
2022-10-01T21:10:20.986Z,87.81
2022-10-01T21:13:00.669Z,87.51
2022-10-01T21:15:43.569Z,87.92
2022-10-01T21:18:22.191Z,87.83
2022-10-01T21:21:01.268Z,88.09
2022-10-01T21:23:51.457Z,88.86
2022-10-01T21:26:27.884Z,89.36
2022-10-01T21:29:24.258Z,88.80
2022-10-01T21:32:09.564Z,89.02
2022-10-01T21:34:55.390Z,89.23
2022-10-01T21:37:32.021Z,89.06
2022-10-01T21:40:09.899Z,89.70
2022-10-01T21:42:52.377Z,89.52
2022-10-01T21:45:26.651Z,89.65
2022-10-01T21:48:16.337Z,89.29
2022-10-01T21:50:57.031Z,89.40
2022-10-01T21:53:59.393Z,89.92
2022-10-01T21:56:59.748Z,91.07
2022-10-01T21:59:52.342Z,92.57
2022-10-01T22:02:36.350Z,93.62
2022-10-01T22:05:17.500Z,94.57
2022-10-01T22:07:54.614Z,95.00
2022-10-01T22:10:28.049Z,95.38
2022-10-01T22:13:00.404Z,95.93
2022-10-01T22:15:36.733Z,96.35
2022-10-01T22:18:13.343Z,96.45
2022-10-01T22:20:43.851Z,97.10
2022-10-01T22:23:18.035Z,97.45
2022-10-01T22:25:55.353Z,98.14
2022-10-01T22:28:30.078Z,98.26
2022-10-01T22:31:00.557Z,97.79
2022-10-01T22:33:38.862Z,98.13
2022-10-01T22:36:12.212Z,97.95
2022-10-01T22:38:47.483Z,97.61
2022-10-01T22:41:21.640Z,97.71
2022-10-01T22:43:50.271Z,97.83
2022-10-01T22:46:43.942Z,97.82
2022-10-01T22:49:27.787Z,98.00
2022-10-01T22:52:13.020Z,98.33
2022-10-01T22:54:50.804Z,98.84
2022-10-01T22:57:40.301Z,98.71
2022-10-01T23:00:13.085Z,98.79
2022-10-01T23:02:45.234Z,98.68
2022-10-01T23:05:45.247Z,98.63
2022-10-01T23:08:22.834Z,98.50
2022-10-01T23:11:04.040Z,98.38
2022-10-01T23:13:43.286Z,98.26
2022-10-01T23:16:21.978Z,98.03
2022-10-01T23:19:05.191Z,98.32
2022-10-01T23:21:44.752Z,98.28
2022-10-01T23:24:31.009Z,98.14
2022-10-01T23:27:12.430Z,98.22
2022-10-01T23:30:05.763Z,98.45
2022-10-01T23:32:59.179Z,98.52
2022-10-01T23:35:42.700Z,98.63
2022-10-01T23:38:33.406Z,98.63
2022-10-01T23:41:11.241Z,98.47
2022-10-01T23:43:48.146Z,98.39
2022-10-01T23:46:20.509Z,98.18
2022-10-01T23:48:56.837Z,97.97
2022-10-01T23:51:29.873Z,98.19
2022-10-01T23:54:06.800Z,98.26
2022-10-01T23:56:48.928Z,98.31
2022-10-01T23:59:27.515Z,98.07
